sensor_id;sensor_type;location;lat;lon;timestamp;P1;durP1;ratioP1;P2;durP2;ratioP2
66546;SDS011;53400;50.364;14.874;2024-03-02T00:02:25;48.88;;;26.85;;
66546;SDS011;53400;50.364;14.874;2024-03-02T00:04:51;49.28;;;26.90;;
66546;SDS011;53400;50.364;14.874;2024-03-02T00:07:17;47.00;;;26.92;;
66546;SDS011;53400;50.364;14.874;2024-03-02T00:09:43;55.08;;;28.65;;
66546;SDS011;53400;50.364;14.874;2024-03-02T00:12:10;50.97;;;27.35;;
66546;SDS011;53400;50.364;14.874;2024-03-02T00:14:42;53.53;;;27.65;;
66546;SDS011;53400;50.364;14.874;2024-03-02T00:17:08;52.00;;;28.50;;
66546;SDS011;53400;50.364;14.874;2024-03-02T00:19:44;54.60;;;27.70;;
66546;SDS011;53400;50.364;14.874;2024-03-02T00:22:10;55.53;;;29.58;;
66546;SDS011;53400;50.364;14.874;2024-03-02T00:24:36;54.75;;;28.40;;
66546;SDS011;53400;50.364;14.874;2024-03-02T00:27:03;54.72;;;29.45;;
66546;SDS011;53400;50.364;14.874;2024-03-02T00:29:31;58.63;;;31.02;;
66546;SDS011;53400;50.364;14.874;2024-03-02T00:31:58;59.40;;;28.83;;
66546;SDS011;53400;50.364;14.874;2024-03-02T00:34:24;60.83;;;31.73;;
66546;SDS011;53400;50.364;14.874;2024-03-02T00:36:50;63.92;;;31.38;;
66546;SDS011;53400;50.364;14.874;2024-03-02T00:39:16;59.75;;;31.63;;
66546;SDS011;53400;50.364;14.874;2024-03-02T00:41:45;72.90;;;32.85;;
66546;SDS011;53400;50.364;14.874;2024-03-02T00:44:12;64.50;;;33.00;;
66546;SDS011;53400;50.364;14.874;2024-03-02T00:46:38;71.95;;;33.78;;
66546;SDS011;53400;50.364;14.874;2024-03-02T00:49:12;71.32;;;33.67;;
66546;SDS011;53400;50.364;14.874;2024-03-02T00:51:44;73.40;;;34.65;;
66546;SDS011;53400;50.364;14.874;2024-03-02T00:54:18;71.97;;;36.03;;
66546;SDS011;53400;50.364;14.874;2024-03-02T00:56:45;77.32;;;35.38;;
66546;SDS011;53400;50.364;14.874;2024-03-02T00:59:13;75.75;;;35.42;;
66546;SDS011;53400;50.364;14.874;2024-03-02T01:01:41;80.97;;;36.28;;
66546;SDS011;53400;50.364;14.874;2024-03-02T01:04:10;87.53;;;37.08;;
66546;SDS011;53400;50.364;14.874;2024-03-02T01:06:36;82.00;;;37.47;;
66546;SDS011;53400;50.364;14.874;2024-03-02T01:09:02;77.40;;;37.75;;
66546;SDS011;53400;50.364;14.874;2024-03-02T01:11:28;77.32;;;37.53;;
66546;SDS011;53400;50.364;14.874;2024-03-02T01:13:54;91.90;;;36.60;;
66546;SDS011;53400;50.364;14.874;2024-03-02T01:16:20;85.07;;;37.75;;
66546;SDS011;53400;50.364;14.874;2024-03-02T01:18:46;83.90;;;38.80;;
66546;SDS011;53400;50.364;14.874;2024-03-02T01:21:13;78.72;;;36.10;;
66546;SDS011;53400;50.364;14.874;2024-03-02T01:23:40;86.90;;;37.63;;
66546;SDS011;53400;50.364;14.874;2024-03-02T01:26:06;90.75;;;39.45;;
66546;SDS011;53400;50.364;14.874;2024-03-02T01:28:32;83.05;;;37.30;;
66546;SDS011;53400;50.364;14.874;2024-03-02T01:30:58;84.28;;;38.65;;
66546;SDS011;53400;50.364;14.874;2024-03-02T01:33:24;92.25;;;38.55;;
66546;SDS011;53400;50.364;14.874;2024-03-02T01:35:50;87.93;;;38.78;;
66546;SDS011;53400;50.364;14.874;2024-03-02T01:38:17;81.60;;;39.17;;
66546;SDS011;53400;50.364;14.874;2024-03-02T01:40:43;84.85;;;39.70;;
66546;SDS011;53400;50.364;14.874;2024-03-02T01:43:12;87.30;;;41.60;;
66546;SDS011;53400;50.364;14.874;2024-03-02T01:45:39;82.10;;;38.08;;
66546;SDS011;53400;50.364;14.874;2024-03-02T01:48:05;89.30;;;39.70;;
66546;SDS011;53400;50.364;14.874;2024-03-02T01:50:32;83.65;;;41.00;;
66546;SDS011;53400;50.364;14.874;2024-03-02T01:52:59;86.45;;;38.47;;
66546;SDS011;53400;50.364;14.874;2024-03-02T01:55:31;87.45;;;38.30;;
66546;SDS011;53400;50.364;14.874;2024-03-02T01:57:58;89.90;;;38.90;;
66546;SDS011;53400;50.364;14.874;2024-03-02T02:00:24;92.18;;;39.03;;
66546;SDS011;53400;50.364;14.874;2024-03-02T02:02:52;90.63;;;39.58;;
66546;SDS011;53400;50.364;14.874;2024-03-02T02:05:18;82.70;;;37.45;;
66546;SDS011;53400;50.364;14.874;2024-03-02T02:07:44;77.63;;;38.72;;
66546;SDS011;53400;50.364;14.874;2024-03-02T02:10:10;86.20;;;38.92;;
66546;SDS011;53400;50.364;14.874;2024-03-02T02:12:38;94.38;;;39.38;;
66546;SDS011;53400;50.364;14.874;2024-03-02T02:15:04;92.88;;;41.25;;
66546;SDS011;53400;50.364;14.874;2024-03-02T02:17:47;85.45;;;37.55;;
66546;SDS011;53400;50.364;14.874;2024-03-02T02:20:13;85.70;;;39.05;;
66546;SDS011;53400;50.364;14.874;2024-03-02T02:22:41;83.03;;;37.17;;
66546;SDS011;53400;50.364;14.874;2024-03-02T02:25:19;83.90;;;37.53;;
66546;SDS011;53400;50.364;14.874;2024-03-02T02:27:45;80.05;;;38.20;;
66546;SDS011;53400;50.364;14.874;2024-03-02T02:30:11;88.93;;;39.38;;
66546;SDS011;53400;50.364;14.874;2024-03-02T02:32:38;91.10;;;39.00;;
66546;SDS011;53400;50.364;14.874;2024-03-02T02:35:04;86.30;;;37.35;;
66546;SDS011;53400;50.364;14.874;2024-03-02T02:37:30;89.95;;;39.00;;
66546;SDS011;53400;50.364;14.874;2024-03-02T02:39:57;88.22;;;39.90;;
66546;SDS011;53400;50.364;14.874;2024-03-02T02:42:23;83.13;;;39.28;;
66546;SDS011;53400;50.364;14.874;2024-03-02T02:44:49;78.53;;;38.53;;
66546;SDS011;53400;50.364;14.874;2024-03-02T02:47:15;88.50;;;37.67;;
66546;SDS011;53400;50.364;14.874;2024-03-02T02:49:41;82.05;;;35.15;;
66546;SDS011;53400;50.364;14.874;2024-03-02T02:52:07;75.97;;;35.67;;
66546;SDS011;53400;50.364;14.874;2024-03-02T02:54:33;74.55;;;32.97;;
66546;SDS011;53400;50.364;14.874;2024-03-02T02:57:00;65.88;;;31.00;;
66546;SDS011;53400;50.364;14.874;2024-03-02T02:59:26;58.95;;;26.13;;
66546;SDS011;53400;50.364;14.874;2024-03-02T03:01:54;58.15;;;27.90;;
66546;SDS011;53400;50.364;14.874;2024-03-02T03:04:20;53.35;;;27.48;;
66546;SDS011;53400;50.364;14.874;2024-03-02T03:06:46;54.97;;;25.98;;
66546;SDS011;53400;50.364;14.874;2024-03-02T03:09:11;51.15;;;24.95;;
66546;SDS011;53400;50.364;14.874;2024-03-02T03:11:37;49.00;;;24.75;;
66546;SDS011;53400;50.364;14.874;2024-03-02T03:14:05;52.78;;;26.10;;
66546;SDS011;53400;50.364;14.874;2024-03-02T03:16:31;50.03;;;26.75;;
66546;SDS011;53400;50.364;14.874;2024-03-02T03:18:57;51.90;;;25.80;;
66546;SDS011;53400;50.364;14.874;2024-03-02T03:21:23;50.72;;;24.83;;
66546;SDS011;53400;50.364;14.874;2024-03-02T03:23:48;49.80;;;26.10;;
66546;SDS011;53400;50.364;14.874;2024-03-02T03:26:15;52.80;;;24.63;;
66546;SDS011;53400;50.364;14.874;2024-03-02T03:28:40;46.30;;;24.40;;
66546;SDS011;53400;50.364;14.874;2024-03-02T03:31:08;47.88;;;25.33;;
66546;SDS011;53400;50.364;14.874;2024-03-02T03:33:33;48.17;;;24.23;;
66546;SDS011;53400;50.364;14.874;2024-03-02T03:36:00;50.00;;;25.60;;
66546;SDS011;53400;50.364;14.874;2024-03-02T03:38:26;50.10;;;25.17;;
66546;SDS011;53400;50.364;14.874;2024-03-02T03:40:52;46.13;;;24.60;;
66546;SDS011;53400;50.364;14.874;2024-03-02T03:43:18;47.40;;;24.60;;
66546;SDS011;53400;50.364;14.874;2024-03-02T03:45:44;48.78;;;23.08;;
66546;SDS011;53400;50.364;14.874;2024-03-02T03:48:11;46.00;;;24.00;;
66546;SDS011;53400;50.364;14.874;2024-03-02T03:50:37;49.90;;;23.73;;
66546;SDS011;53400;50.364;14.874;2024-03-02T03:53:03;45.25;;;22.85;;
66546;SDS011;53400;50.364;14.874;2024-03-02T03:55:29;45.90;;;23.08;;
66546;SDS011;53400;50.364;14.874;2024-03-02T03:57:55;44.08;;;23.17;;
66546;SDS011;53400;50.364;14.874;2024-03-02T04:00:21;46.20;;;22.92;;
66546;SDS011;53400;50.364;14.874;2024-03-02T04:02:47;44.70;;;23.23;;
66546;SDS011;53400;50.364;14.874;2024-03-02T04:05:17;46.15;;;25.30;;
66546;SDS011;53400;50.364;14.874;2024-03-02T04:07:43;43.30;;;22.27;;
66546;SDS011;53400;50.364;14.874;2024-03-02T04:10:09;43.05;;;24.55;;
66546;SDS011;53400;50.364;14.874;2024-03-02T04:12:36;41.20;;;20.70;;
66546;SDS011;53400;50.364;14.874;2024-03-02T04:15:02;46.20;;;23.33;;
66546;SDS011;53400;50.364;14.874;2024-03-02T04:17:31;49.00;;;23.95;;
66546;SDS011;53400;50.364;14.874;2024-03-02T04:19:59;42.60;;;22.25;;
66546;SDS011;53400;50.364;14.874;2024-03-02T04:22:26;39.70;;;21.25;;
66546;SDS011;53400;50.364;14.874;2024-03-02T04:24:55;42.88;;;23.17;;
66546;SDS011;53400;50.364;14.874;2024-03-02T04:27:21;41.15;;;21.33;;
66546;SDS011;53400;50.364;14.874;2024-03-02T04:29:47;40.60;;;21.73;;
66546;SDS011;53400;50.364;14.874;2024-03-02T04:32:13;45.40;;;23.08;;
66546;SDS011;53400;50.364;14.874;2024-03-02T04:34:39;43.75;;;22.58;;
66546;SDS011;53400;50.364;14.874;2024-03-02T04:37:04;42.95;;;22.35;;
66546;SDS011;53400;50.364;14.874;2024-03-02T04:39:33;43.75;;;22.63;;
66546;SDS011;53400;50.364;14.874;2024-03-02T04:42:00;42.50;;;22.85;;
66546;SDS011;53400;50.364;14.874;2024-03-02T04:44:26;45.55;;;23.67;;
66546;SDS011;53400;50.364;14.874;2024-03-02T04:46:51;43.78;;;23.48;;
66546;SDS011;53400;50.364;14.874;2024-03-02T04:49:17;43.75;;;21.77;;
66546;SDS011;53400;50.364;14.874;2024-03-02T04:51:43;42.22;;;21.30;;
66546;SDS011;53400;50.364;14.874;2024-03-02T04:54:09;44.65;;;22.88;;
66546;SDS011;53400;50.364;14.874;2024-03-02T04:56:36;41.58;;;21.58;;
66546;SDS011;53400;50.364;14.874;2024-03-02T04:59:15;42.13;;;22.38;;
66546;SDS011;53400;50.364;14.874;2024-03-02T05:01:43;43.30;;;20.98;;
66546;SDS011;53400;50.364;14.874;2024-03-02T05:04:10;42.17;;;21.42;;
66546;SDS011;53400;50.364;14.874;2024-03-02T05:06:39;37.25;;;20.83;;
66546;SDS011;53400;50.364;14.874;2024-03-02T05:09:08;40.28;;;21.25;;
66546;SDS011;53400;50.364;14.874;2024-03-02T05:11:33;41.17;;;21.67;;
66546;SDS011;53400;50.364;14.874;2024-03-02T05:14:06;39.33;;;20.42;;
66546;SDS011;53400;50.364;14.874;2024-03-02T05:16:32;40.45;;;20.73;;
66546;SDS011;53400;50.364;14.874;2024-03-02T05:18:59;39.38;;;18.58;;
66546;SDS011;53400;50.364;14.874;2024-03-02T05:21:25;38.67;;;19.75;;
66546;SDS011;53400;50.364;14.874;2024-03-02T05:23:51;36.28;;;18.85;;
66546;SDS011;53400;50.364;14.874;2024-03-02T05:26:17;36.13;;;19.42;;
66546;SDS011;53400;50.364;14.874;2024-03-02T05:28:43;42.00;;;20.65;;
66546;SDS011;53400;50.364;14.874;2024-03-02T05:31:11;39.50;;;19.73;;
66546;SDS011;53400;50.364;14.874;2024-03-02T05:33:37;40.78;;;20.75;;
66546;SDS011;53400;50.364;14.874;2024-03-02T05:36:03;41.05;;;20.65;;
66546;SDS011;53400;50.364;14.874;2024-03-02T05:38:30;41.88;;;20.85;;
66546;SDS011;53400;50.364;14.874;2024-03-02T05:40:56;43.67;;;20.83;;
66546;SDS011;53400;50.364;14.874;2024-03-02T05:43:22;41.70;;;21.52;;
66546;SDS011;53400;50.364;14.874;2024-03-02T05:45:47;41.55;;;20.67;;
66546;SDS011;53400;50.364;14.874;2024-03-02T05:48:15;43.80;;;21.70;;
66546;SDS011;53400;50.364;14.874;2024-03-02T05:50:40;45.35;;;24.00;;
66546;SDS011;53400;50.364;14.874;2024-03-02T05:53:06;40.63;;;21.98;;
66546;SDS011;53400;50.364;14.874;2024-03-02T05:55:32;39.78;;;20.70;;
66546;SDS011;53400;50.364;14.874;2024-03-02T05:57:58;41.50;;;22.40;;
66546;SDS011;53400;50.364;14.874;2024-03-02T06:00:53;44.35;;;22.02;;
66546;SDS011;53400;50.364;14.874;2024-03-02T06:03:22;43.15;;;21.10;;
66546;SDS011;53400;50.364;14.874;2024-03-02T06:05:48;39.58;;;20.77;;
66546;SDS011;53400;50.364;14.874;2024-03-02T06:08:14;38.05;;;20.23;;
66546;SDS011;53400;50.364;14.874;2024-03-02T06:10:40;43.72;;;21.38;;
66546;SDS011;53400;50.364;14.874;2024-03-02T06:13:06;42.88;;;21.60;;
66546;SDS011;53400;50.364;14.874;2024-03-02T06:15:32;42.35;;;23.08;;
66546;SDS011;53400;50.364;14.874;2024-03-02T06:18:00;41.08;;;22.20;;
66546;SDS011;53400;50.364;14.874;2024-03-02T06:20:27;43.30;;;22.92;;
66546;SDS011;53400;50.364;14.874;2024-03-02T06:22:56;40.17;;;22.50;;
66546;SDS011;53400;50.364;14.874;2024-03-02T06:25:22;40.25;;;21.88;;
66546;SDS011;53400;50.364;14.874;2024-03-02T06:27:48;43.33;;;22.58;;
66546;SDS011;53400;50.364;14.874;2024-03-02T06:30:14;41.13;;;22.17;;
66546;SDS011;53400;50.364;14.874;2024-03-02T06:32:41;42.90;;;22.20;;
66546;SDS011;53400;50.364;14.874;2024-03-02T06:35:07;41.00;;;21.77;;
66546;SDS011;53400;50.364;14.874;2024-03-02T06:37:38;43.40;;;22.35;;
66546;SDS011;53400;50.364;14.874;2024-03-02T06:40:05;40.17;;;22.17;;
66546;SDS011;53400;50.364;14.874;2024-03-02T06:42:33;45.38;;;21.77;;
66546;SDS011;53400;50.364;14.874;2024-03-02T06:44:58;41.75;;;21.48;;
66546;SDS011;53400;50.364;14.874;2024-03-02T06:47:25;41.85;;;21.80;;
66546;SDS011;53400;50.364;14.874;2024-03-02T06:49:50;44.35;;;23.55;;
66546;SDS011;53400;50.364;14.874;2024-03-02T06:52:17;42.00;;;21.95;;
66546;SDS011;53400;50.364;14.874;2024-03-02T06:54:44;38.42;;;21.15;;
66546;SDS011;53400;50.364;14.874;2024-03-02T06:57:10;43.30;;;23.38;;
66546;SDS011;53400;50.364;14.874;2024-03-02T06:59:35;42.60;;;22.90;;
66546;SDS011;53400;50.364;14.874;2024-03-02T07:02:01;45.63;;;22.63;;
66546;SDS011;53400;50.364;14.874;2024-03-02T07:04:27;40.47;;;22.60;;
66546;SDS011;53400;50.364;14.874;2024-03-02T07:06:53;41.92;;;23.15;;
66546;SDS011;53400;50.364;14.874;2024-03-02T07:09:20;45.53;;;23.55;;
66546;SDS011;53400;50.364;14.874;2024-03-02T07:11:49;45.42;;;23.67;;
66546;SDS011;53400;50.364;14.874;2024-03-02T07:14:15;47.15;;;24.02;;
66546;SDS011;53400;50.364;14.874;2024-03-02T07:16:41;49.85;;;26.95;;
66546;SDS011;53400;50.364;14.874;2024-03-02T07:19:08;55.97;;;25.95;;
66546;SDS011;53400;50.364;14.874;2024-03-02T07:21:35;56.50;;;28.65;;
66546;SDS011;53400;50.364;14.874;2024-03-02T07:24:00;57.97;;;28.70;;
66546;SDS011;53400;50.364;14.874;2024-03-02T07:26:29;58.38;;;29.35;;
66546;SDS011;53400;50.364;14.874;2024-03-02T07:28:58;53.30;;;26.83;;
66546;SDS011;53400;50.364;14.874;2024-03-02T07:31:24;53.78;;;27.10;;
66546;SDS011;53400;50.364;14.874;2024-03-02T07:33:50;52.78;;;27.30;;
66546;SDS011;53400;50.364;14.874;2024-03-02T07:36:16;52.72;;;27.42;;
66546;SDS011;53400;50.364;14.874;2024-03-02T07:38:42;51.65;;;26.25;;
66546;SDS011;53400;50.364;14.874;2024-03-02T07:41:10;56.03;;;27.50;;
66546;SDS011;53400;50.364;14.874;2024-03-02T07:43:36;52.47;;;25.27;;
66546;SDS011;53400;50.364;14.874;2024-03-02T07:46:04;46.05;;;24.10;;
66546;SDS011;53400;50.364;14.874;2024-03-02T07:48:29;48.00;;;24.15;;
66546;SDS011;53400;50.364;14.874;2024-03-02T07:50:56;52.88;;;27.38;;
66546;SDS011;53400;50.364;14.874;2024-03-02T07:53:22;57.38;;;27.35;;
66546;SDS011;53400;50.364;14.874;2024-03-02T07:55:49;52.83;;;27.17;;
66546;SDS011;53400;50.364;14.874;2024-03-02T07:58:14;54.67;;;28.42;;
66546;SDS011;53400;50.364;14.874;2024-03-02T08:00:41;53.90;;;26.98;;
66546;SDS011;53400;50.364;14.874;2024-03-02T08:03:08;56.22;;;27.23;;
66546;SDS011;53400;50.364;14.874;2024-03-02T08:05:36;54.33;;;26.00;;
66546;SDS011;53400;50.364;14.874;2024-03-02T08:08:03;52.17;;;25.70;;
66546;SDS011;53400;50.364;14.874;2024-03-02T08:10:30;52.60;;;26.48;;
66546;SDS011;53400;50.364;14.874;2024-03-02T08:12:55;47.50;;;25.63;;
66546;SDS011;53400;50.364;14.874;2024-03-02T08:15:21;46.97;;;25.00;;
66546;SDS011;53400;50.364;14.874;2024-03-02T08:17:47;51.53;;;25.63;;
66546;SDS011;53400;50.364;14.874;2024-03-02T08:20:17;51.88;;;26.27;;
66546;SDS011;53400;50.364;14.874;2024-03-02T08:22:44;48.60;;;25.63;;
66546;SDS011;53400;50.364;14.874;2024-03-02T08:25:11;51.85;;;26.15;;
66546;SDS011;53400;50.364;14.874;2024-03-02T08:27:37;50.15;;;25.48;;
66546;SDS011;53400;50.364;14.874;2024-03-02T08:30:04;47.05;;;24.80;;
66546;SDS011;53400;50.364;14.874;2024-03-02T08:32:31;51.70;;;26.45;;
66546;SDS011;53400;50.364;14.874;2024-03-02T08:34:57;48.40;;;25.60;;
66546;SDS011;53400;50.364;14.874;2024-03-02T08:37:25;50.00;;;25.60;;
66546;SDS011;53400;50.364;14.874;2024-03-02T08:39:51;46.58;;;26.25;;
66546;SDS011;53400;50.364;14.874;2024-03-02T08:42:16;49.75;;;25.55;;
66546;SDS011;53400;50.364;14.874;2024-03-02T08:44:43;50.88;;;26.48;;
66546;SDS011;53400;50.364;14.874;2024-03-02T08:47:09;48.90;;;25.15;;
66546;SDS011;53400;50.364;14.874;2024-03-02T08:49:35;51.33;;;26.95;;
66546;SDS011;53400;50.364;14.874;2024-03-02T08:52:01;43.80;;;22.88;;
66546;SDS011;53400;50.364;14.874;2024-03-02T08:54:28;47.03;;;24.45;;
66546;SDS011;53400;50.364;14.874;2024-03-02T08:56:54;48.75;;;24.27;;
66546;SDS011;53400;50.364;14.874;2024-03-02T08:59:20;50.15;;;25.08;;
66546;SDS011;53400;50.364;14.874;2024-03-02T09:01:46;44.75;;;23.88;;
66546;SDS011;53400;50.364;14.874;2024-03-02T09:04:12;41.83;;;22.17;;
66546;SDS011;53400;50.364;14.874;2024-03-02T09:06:40;38.60;;;20.15;;
66546;SDS011;53400;50.364;14.874;2024-03-02T09:09:06;38.20;;;21.75;;
66546;SDS011;53400;50.364;14.874;2024-03-02T09:11:34;43.72;;;22.45;;
66546;SDS011;53400;50.364;14.874;2024-03-02T09:14:00;42.42;;;24.25;;
66546;SDS011;53400;50.364;14.874;2024-03-02T09:16:26;40.42;;;22.70;;
66546;SDS011;53400;50.364;14.874;2024-03-02T09:18:56;40.60;;;22.23;;
66546;SDS011;53400;50.364;14.874;2024-03-02T09:21:22;43.85;;;23.38;;
66546;SDS011;53400;50.364;14.874;2024-03-02T09:23:48;40.60;;;22.92;;
66546;SDS011;53400;50.364;14.874;2024-03-02T09:26:14;44.80;;;23.80;;
66546;SDS011;53400;50.364;14.874;2024-03-02T09:28:43;38.03;;;20.83;;
66546;SDS011;53400;50.364;14.874;2024-03-02T09:31:09;39.88;;;22.27;;
66546;SDS011;53400;50.364;14.874;2024-03-02T09:33:35;39.10;;;21.58;;
66546;SDS011;53400;50.364;14.874;2024-03-02T09:36:01;42.45;;;22.45;;
66546;SDS011;53400;50.364;14.874;2024-03-02T09:38:28;45.03;;;21.88;;
66546;SDS011;53400;50.364;14.874;2024-03-02T09:40:53;38.92;;;21.20;;
66546;SDS011;53400;50.364;14.874;2024-03-02T09:43:19;37.15;;;21.27;;
66546;SDS011;53400;50.364;14.874;2024-03-02T09:45:47;37.85;;;20.17;;
66546;SDS011;53400;50.364;14.874;2024-03-02T09:48:13;36.05;;;19.17;;
66546;SDS011;53400;50.364;14.874;2024-03-02T09:50:39;37.65;;;20.05;;
66546;SDS011;53400;50.364;14.874;2024-03-02T09:53:05;35.30;;;18.85;;
66546;SDS011;53400;50.364;14.874;2024-03-02T09:55:33;35.40;;;19.40;;
66546;SDS011;53400;50.364;14.874;2024-03-02T09:57:59;34.63;;;18.65;;
66546;SDS011;53400;50.364;14.874;2024-03-02T10:00:25;32.20;;;17.48;;
66546;SDS011;53400;50.364;14.874;2024-03-02T10:02:53;31.42;;;17.38;;
66546;SDS011;53400;50.364;14.874;2024-03-02T10:05:23;30.55;;;17.70;;
66546;SDS011;53400;50.364;14.874;2024-03-02T10:07:57;30.20;;;16.08;;
66546;SDS011;53400;50.364;14.874;2024-03-02T10:10:24;30.70;;;16.50;;
66546;SDS011;53400;50.364;14.874;2024-03-02T10:13:03;32.65;;;18.35;;
66546;SDS011;53400;50.364;14.874;2024-03-02T10:15:30;30.55;;;16.90;;
66546;SDS011;53400;50.364;14.874;2024-03-02T10:17:58;28.40;;;15.75;;
66546;SDS011;53400;50.364;14.874;2024-03-02T10:20:24;27.60;;;15.57;;
66546;SDS011;53400;50.364;14.874;2024-03-02T10:22:50;28.40;;;15.45;;
66546;SDS011;53400;50.364;14.874;2024-03-02T10:25:27;26.50;;;15.10;;
66546;SDS011;53400;50.364;14.874;2024-03-02T10:27:56;30.30;;;15.65;;
66546;SDS011;53400;50.364;14.874;2024-03-02T10:30:22;29.17;;;15.68;;
66546;SDS011;53400;50.364;14.874;2024-03-02T10:32:49;26.83;;;16.35;;
66546;SDS011;53400;50.364;14.874;2024-03-02T10:35:16;28.35;;;15.63;;
66546;SDS011;53400;50.364;14.874;2024-03-02T10:37:42;31.05;;;17.38;;
66546;SDS011;53400;50.364;14.874;2024-03-02T10:40:08;26.25;;;15.23;;
66546;SDS011;53400;50.364;14.874;2024-03-02T10:42:37;23.95;;;14.32;;
66546;SDS011;53400;50.364;14.874;2024-03-02T10:45:04;25.75;;;14.23;;
66546;SDS011;53400;50.364;14.874;2024-03-02T10:47:33;26.52;;;15.73;;
66546;SDS011;53400;50.364;14.874;2024-03-02T10:50:03;23.90;;;12.82;;
66546;SDS011;53400;50.364;14.874;2024-03-02T10:52:40;25.38;;;13.60;;
66546;SDS011;53400;50.364;14.874;2024-03-02T10:55:08;26.85;;;13.82;;
66546;SDS011;53400;50.364;14.874;2024-03-02T10:57:40;26.15;;;14.90;;
66546;SDS011;53400;50.364;14.874;2024-03-02T11:00:08;23.65;;;13.25;;
66546;SDS011;53400;50.364;14.874;2024-03-02T11:02:41;25.08;;;14.30;;
66546;SDS011;53400;50.364;14.874;2024-03-02T11:05:12;26.20;;;13.98;;
66546;SDS011;53400;50.364;14.874;2024-03-02T11:07:44;27.60;;;14.85;;
66546;SDS011;53400;50.364;14.874;2024-03-02T11:10:10;28.13;;;15.90;;
66546;SDS011;53400;50.364;14.874;2024-03-02T11:12:39;27.42;;;16.35;;
66546;SDS011;53400;50.364;14.874;2024-03-02T11:15:14;27.98;;;15.15;;
66546;SDS011;53400;50.364;14.874;2024-03-02T11:20:12;29.73;;;16.90;;
66546;SDS011;53400;50.364;14.874;2024-03-02T11:22:39;30.58;;;18.83;;
66546;SDS011;53400;50.364;14.874;2024-03-02T11:25:06;34.70;;;19.08;;
66546;SDS011;53400;50.364;14.874;2024-03-02T11:27:59;33.72;;;18.30;;
66546;SDS011;53400;50.364;14.874;2024-03-02T11:33:22;33.08;;;17.30;;
66546;SDS011;53400;50.364;14.874;2024-03-02T11:35:50;30.70;;;18.48;;
66546;SDS011;53400;50.364;14.874;2024-03-02T11:38:17;31.42;;;17.52;;
66546;SDS011;53400;50.364;14.874;2024-03-02T11:40:46;30.00;;;16.55;;
66546;SDS011;53400;50.364;14.874;2024-03-02T11:43:12;29.98;;;16.75;;
66546;SDS011;53400;50.364;14.874;2024-03-02T11:45:39;28.23;;;17.30;;
66546;SDS011;53400;50.364;14.874;2024-03-02T11:48:10;31.27;;;16.98;;
66546;SDS011;53400;50.364;14.874;2024-03-02T11:50:40;30.30;;;16.83;;
66546;SDS011;53400;50.364;14.874;2024-03-02T11:53:09;32.35;;;17.35;;
66546;SDS011;53400;50.364;14.874;2024-03-02T11:55:36;29.00;;;17.20;;
66546;SDS011;53400;50.364;14.874;2024-03-02T11:58:04;29.05;;;16.65;;
66546;SDS011;53400;50.364;14.874;2024-03-02T12:00:31;24.55;;;15.68;;
66546;SDS011;53400;50.364;14.874;2024-03-02T12:02:59;28.77;;;16.42;;
66546;SDS011;53400;50.364;14.874;2024-03-02T12:05:26;28.95;;;15.32;;
66546;SDS011;53400;50.364;14.874;2024-03-02T12:07:55;28.25;;;15.60;;
66546;SDS011;53400;50.364;14.874;2024-03-02T12:10:22;27.25;;;16.42;;
66546;SDS011;53400;50.364;14.874;2024-03-02T12:12:48;25.05;;;14.65;;
66546;SDS011;53400;50.364;14.874;2024-03-02T12:15:23;27.92;;;16.85;;
66546;SDS011;53400;50.364;14.874;2024-03-02T12:17:52;26.70;;;16.05;;
66546;SDS011;53400;50.364;14.874;2024-03-02T12:20:19;28.77;;;16.55;;
66546;SDS011;53400;50.364;14.874;2024-03-02T12:22:47;27.80;;;15.23;;
66546;SDS011;53400;50.364;14.874;2024-03-02T12:25:12;27.55;;;16.52;;
66546;SDS011;53400;50.364;14.874;2024-03-02T12:27:39;27.33;;;16.27;;
66546;SDS011;53400;50.364;14.874;2024-03-02T12:30:06;28.55;;;16.75;;
66546;SDS011;53400;50.364;14.874;2024-03-02T12:32:38;26.65;;;16.33;;
66546;SDS011;53400;50.364;14.874;2024-03-02T12:35:04;26.55;;;15.48;;
66546;SDS011;53400;50.364;14.874;2024-03-02T12:37:31;30.35;;;16.50;;
66546;SDS011;53400;50.364;14.874;2024-03-02T12:39:57;27.30;;;16.73;;
66546;SDS011;53400;50.364;14.874;2024-03-02T12:42:23;30.23;;;17.77;;
66546;SDS011;53400;50.364;14.874;2024-03-02T12:44:51;27.23;;;16.58;;
66546;SDS011;53400;50.364;14.874;2024-03-02T12:47:19;29.70;;;18.15;;
66546;SDS011;53400;50.364;14.874;2024-03-02T12:49:47;27.40;;;16.90;;
66546;SDS011;53400;50.364;14.874;2024-03-02T12:52:14;29.13;;;17.00;;
66546;SDS011;53400;50.364;14.874;2024-03-02T12:54:40;27.33;;;16.33;;
66546;SDS011;53400;50.364;14.874;2024-03-02T12:57:06;28.60;;;17.17;;
66546;SDS011;53400;50.364;14.874;2024-03-02T12:59:32;28.08;;;16.77;;
66546;SDS011;53400;50.364;14.874;2024-03-02T13:01:58;31.63;;;18.48;;
66546;SDS011;53400;50.364;14.874;2024-03-02T13:04:24;30.17;;;18.35;;
66546;SDS011;53400;50.364;14.874;2024-03-02T13:06:54;27.15;;;16.75;;
66546;SDS011;53400;50.364;14.874;2024-03-02T13:09:23;32.40;;;18.80;;
66546;SDS011;53400;50.364;14.874;2024-03-02T13:11:49;30.95;;;17.35;;
66546;SDS011;53400;50.364;14.874;2024-03-02T13:14:15;31.45;;;17.98;;
66546;SDS011;53400;50.364;14.874;2024-03-02T13:16:41;29.48;;;19.70;;
66546;SDS011;53400;50.364;14.874;2024-03-02T13:19:09;31.35;;;17.92;;
66546;SDS011;53400;50.364;14.874;2024-03-02T13:21:35;27.85;;;17.08;;
66546;SDS011;53400;50.364;14.874;2024-03-02T13:24:02;27.98;;;17.05;;
66546;SDS011;53400;50.364;14.874;2024-03-02T13:26:29;30.92;;;18.23;;
66546;SDS011;53400;50.364;14.874;2024-03-02T13:28:55;33.45;;;19.70;;
66546;SDS011;53400;50.364;14.874;2024-03-02T13:31:21;35.13;;;18.33;;
66546;SDS011;53400;50.364;14.874;2024-03-02T13:33:47;32.90;;;18.55;;
66546;SDS011;53400;50.364;14.874;2024-03-02T13:36:13;30.42;;;18.77;;
66546;SDS011;53400;50.364;14.874;2024-03-02T13:38:40;31.88;;;19.45;;
66546;SDS011;53400;50.364;14.874;2024-03-02T13:41:07;32.90;;;18.48;;
66546;SDS011;53400;50.364;14.874;2024-03-02T13:43:33;35.10;;;19.80;;
66546;SDS011;53400;50.364;14.874;2024-03-02T13:46:00;32.40;;;18.38;;
66546;SDS011;53400;50.364;14.874;2024-03-02T13:48:27;31.25;;;18.63;;
66546;SDS011;53400;50.364;14.874;2024-03-02T13:50:54;31.55;;;18.05;;
66546;SDS011;53400;50.364;14.874;2024-03-02T13:53:20;32.55;;;19.05;;
66546;SDS011;53400;50.364;14.874;2024-03-02T13:55:46;34.13;;;17.77;;
66546;SDS011;53400;50.364;14.874;2024-03-02T13:58:14;36.35;;;20.85;;
66546;SDS011;53400;50.364;14.874;2024-03-02T14:00:40;40.10;;;21.58;;
66546;SDS011;53400;50.364;14.874;2024-03-02T14:03:06;34.03;;;19.58;;
66546;SDS011;53400;50.364;14.874;2024-03-02T14:05:33;34.75;;;20.38;;
66546;SDS011;53400;50.364;14.874;2024-03-02T14:07:58;35.53;;;20.77;;
66546;SDS011;53400;50.364;14.874;2024-03-02T14:10:27;40.92;;;21.23;;
66546;SDS011;53400;50.364;14.874;2024-03-02T14:12:54;36.97;;;20.25;;
66546;SDS011;53400;50.364;14.874;2024-03-02T14:15:23;35.85;;;20.42;;